Auburn, Illinois
Current Conditions -  °F | °C
As of 11:52 AM on Monday 22 Dec 2014 (Local Time) from KSPI Reporting Station
Light Rain Light Rain  
Wind Chill: 36°   Ceiling: 800
Heat Index: 43°   Visibility: 2.5mi
Dew Point: 42°   Wind: 15mph
Humidity: 97%   Direction: 150°SSE
Pressure: 29.68"   Gusts: NA
Location:  39.59°N, 89.75°W
Report Text: KSPI 221752Z 15013KT 2 1/2SM -RA BR OVC008 06/06 A2968 RMK AO2 SLP054 P0009 60035 T00610056 10061 20022 58031
Loading
Personal Weather Stations






























Interactive Weather Map New forecast layout! Learn more

10-Day Weather Forecast

Advertisements
Track Severe Weather on mobile